Date,TemperatureHighF,TemperatureAvgF,TemperatureLowF,DewpointHighF,DewpointAvgF,DewpointLowF,HumidityHigh,HumidityAvg,HumidityLow,PressureMaxIn,PressureMinIn,WindSpeedMaxMPH,WindSpeedAvgMPH,GustSpeedMaxMPH,PrecipitationSumIn
2012-1-1,82.6,67.4,55.6,37.5,30.8,26.0,39,26,18,30.12,30.01,118,118,118,0.00
2012-1-2,83.6,64.8,49.5,39.9,32.6,26.1,56,32,18,30.16,30.03,118,118,118,0.00
2012-1-3,84.7,59.0,43.2,48.4,36.6,30.4,65,46,21,30.16,30.05,118,118,118,0.00
2012-1-4,86.1,63.7,48.0,41.1,34.7,31.2,55,37,18,30.19,30.08,118,118,118,0.00
2012-1-5,84.9,59.0,43.9,47.2,37.0,32.4,68,48,20,30.11,29.91,118,118,118,0.00
2012-1-6,77.4,54.9,42.1,53.7,41.8,32.9,89,64,32,29.95,29.85,118,118,118,0.00
2012-1-7,68.1,55.3,36.2,53.4,37.4,20.3,89,58,18,29.98,29.86,118,118,118,0.00
2012-1-8,73.2,61.9,45.7,31.3,25.9,19.4,48,26,18,30.10,29.98,118,118,118,0.00
2012-1-9,77.9,59.6,43.6,39.0,32.2,22.0,70,38,22,30.12,30.00,118,118,118,0.00
2012-1-10,71.1,50.7,37.5,42.1,35.6,31.0,80,59,30,30.11,29.96,118,118,118,0.00
2012-1-11,73.0,53.2,38.5,52.3,39.6,28.4,84,63,30,30.00,29.87,118,3,118,0.00
2012-1-12,75.3,63.4,55.6,33.8,26.8,17.9,36,25,18,30.01,29.88,118,7,118,0.00
2012-1-13,76.5,65.3,46.1,30.8,21.5,14.7,36,19,14,30.09,29.99,118,118,118,0.00
2012-1-14,71.1,51.8,37.9,40.2,26.0,15.1,65,39,18,30.10,30.01,118,118,118,0.00
2012-1-15,64.5,49.8,36.0,50.2,35.4,25.0,87,61,29,30.07,29.97,118,118,118,0.00
2012-1-16,61.2,50.7,44.5,47.7,41.9,32.6,92,73,54,30.15,29.99,118,118,118,0.00
2012-1-17,60.2,47.2,38.5,45.2,36.5,27.9,87,67,45,30.25,30.14,118,93,118,0.00
2012-1-18,66.8,45.8,30.6,46.3,36.0,28.1,93,72,36,30.26,30.10,0,0,0,0.00
2012-1-19,67.8,46.0,30.3,47.3,36.5,27.5,92,73,29,30.09,29.94,0,0,0,0.00
2012-1-20,64.7,50.4,37.3,51.5,43.3,34.9,96,78,57,30.06,29.93,0,0,0,0.00
2012-1-21,67.8,55.0,42.1,57.2,46.7,35.9,97,77,33,30.04,29.85,0,0,0,0.71
2012-1-22,63.2,49.7,38.9,49.8,42.8,35.9,93,78,50,30.13,30.03,0,0,0,0.00
2012-1-23,54.4,50.2,44.5,53.8,48.9,43.2,98,95,91,30.04,29.81,0,0,0,0.48
2012-1-24,70.1,52.1,39.3,51.1,43.7,38.3,98,76,36,30.18,29.99,0,0,0,0.00
2012-1-25,80.1,60.8,46.8,50.5,45.0,41.6,85,61,29,30.17,30.04,0,0,0,0.00
2012-1-26,83.0,61.5,46.2,57.6,48.0,42.2,88,65,31,30.06,29.91,0,0,0,0.00
2012-1-27,75.3,64.8,49.9,48.2,40.7,27.1,83,45,24,30.09,29.89,0,0,0,0.00
2012-1-28,75.4,65.9,58.9,31.5,24.3,16.5,29,21,16,30.17,30.06,0,0,0,0.00
2012-1-29,79.6,62.8,41.9,39.6,27.4,16.9,64,29,16,30.14,29.99,0,0,0,0.00
2012-1-30,74.0,51.6,35.6,49.1,36.9,28.1,86,61,24,30.00,29.85,0,0,0,0.00
2012-1-31,68.3,51.4,38.2,51.1,42.7,35.2,90,75,37,30.08,29.91,0,0,0,0.00
2012-2-1,69.3,52.7,40.9,53.0,45.7,38.5,95,79,49,30.11,29.97,0,0,0,0.00
2012-2-2,75.4,56.0,41.1,50.1,39.3,22.5,92,60,23,30.01,29.80,0,0,0,0.00
2012-2-3,69.8,61.4,51.7,32.2,25.3,20.4,35,25,22,29.99,29.89,0,0,0,0.00
2012-2-4,70.3,61.7,51.1,36.2,29.7,23.7,35,30,25,30.00,29.92,0,0,0,0.00
2012-2-5,72.3,63.7,53.3,35.8,30.5,27.0,38,29,24,29.99,29.88,0,0,0,0.00
2012-2-6,67.1,53.6,45.5,36.7,30.7,26.5,54,43,27,29.95,29.90,0,0,0,0.00
2012-2-9,51.4,49.8,48.5,40.4,39.7,39.3,71,68,66,30.07,30.06,0,0,0,0.00
2012-2-10,75.3,56.2,39.3,52.4,42.9,33.7,88,64,32,30.09,29.96,0,0,0,0.00
2012-2-11,65.0,53.2,44.1,52.5,47.2,41.3,95,81,60,29.97,29.83,0,0,0,0.00
2012-2-12,66.1,50.2,37.5,50.4,43.6,35.7,96,79,53,29.95,29.86,0,0,0,0.00
2012-2-13,61.6,51.0,43.5,51.5,43.0,35.5,96,76,45,29.95,29.76,3,0,4,0.02
2012-2-14,64.0,46.5,32.9,41.9,36.3,30.3,92,71,38,30.01,29.83,0,0,0,0.00
2012-2-15,58.4,44.8,35.2,49.2,36.5,30.4,93,75,37,30.02,29.83,11,4,21,0.02
2012-2-16,71.8,51.2,34.1,38.3,33.5,30.3,88,57,27,30.09,29.94,11,11,11,0.00
2012-2-17,74.9,52.1,34.3,40.9,33.5,28.1,81,54,19,30.12,29.98,11,11,11,0.00
2012-2-18,67.1,50.6,36.0,49.1,39.9,31.0,89,69,39,30.06,29.94,11,3,11,0.00
2012-2-19,63.4,50.2,41.1,48.8,42.7,36.7,95,77,53,30.02,29.89,0,0,0,0.00
2012-2-20,64.2,47.8,36.5,49.3,39.5,32.1,88,74,47,30.07,29.97,0,0,0,0.00
2012-2-21,77.4,55.8,37.6,43.9,38.1,34.7,94,59,23,30.09,30.01,0,0,0,0.00
2012-2-22,84.9,60.7,43.2,46.5,40.0,35.6,78,51,24,30.08,29.84,0,0,0,0.00
2012-2-23,81.1,59.6,42.9,49.2,40.3,32.7,75,52,28,29.84,29.71,0,0,0,0.00
2012-2-24,84.9,60.5,43.8,57.0,42.9,31.9,91,59,18,30.06,29.84,0,0,0,0.00
2012-2-25,70.6,55.3,39.9,53.5,47.5,34.9,94,77,49,30.06,29.87,0,0,0,0.00
2012-2-26,69.4,52.0,38.2,49.7,39.8,29.7,87,65,34,29.88,29.75,0,0,0,0.00
2012-2-27,56.3,48.9,37.8,48.5,42.8,34.4,91,80,62,29.86,29.72,0,0,0,0.00
2012-2-28,59.9,45.3,31.6,39.4,34.9,29.3,94,70,41,30.20,29.86,0,0,0,0.01
2012-2-29,62.9,48.7,31.9,48.8,40.5,28.2,91,75,49,30.23,30.08,0,0,0,0.00
2012-3-1,65.2,52.9,41.2,48.0,43.2,37.5,93,72,44,30.11,29.95,0,0,0,0.00
2012-3-2,72.1,55.9,38.8,40.6,29.4,19.3,87,43,17,30.21,30.00,0,0,0,0.00
2012-3-3,83.8,62.4,40.8,36.7,29.4,21.1,57,32,15,30.19,30.07,0,0,0,0.00
2012-3-4,88.6,67.5,47.7,44.2,35.2,26.3,55,33,18,30.08,29.90,0,0,0,0.00
2012-3-5,84.5,61.7,44.2,45.3,38.6,33.7,80,47,21,29.94,29.83,0,0,0,0.00
2012-3-6,62.9,47.1,35.0,50.3,39.9,31.7,94,77,52,29.86,29.66,0,0,0,0.00
2012-3-7,67.4,49.6,33.5,34.2,26.7,16.9,81,46,18,30.09,29.79,0,0,0,0.00
2012-3-8,80.9,57.6,34.6,36.3,28.2,21.2,73,38,15,30.19,30.07,0,0,0,0.00
2012-3-9,86.3,65.8,44.2,37.5,30.7,21.2,54,29,15,30.18,29.95,0,0,0,0.00
2012-3-10,79.2,57.4,39.3,44.2,35.1,27.2,81,48,19,29.95,29.85,0,0,0,0.00
2012-3-11,66.9,51.2,37.8,49.9,42.7,34.8,92,74,52,29.98,29.90,0,0,0,0.00
2012-3-12,67.3,51.2,38.6,50.0,43.2,35.8,93,75,51,29.99,29.90,0,0,0,0.00
2012-3-13,65.3,50.4,39.8,50.5,43.8,36.5,93,79,57,30.02,29.93,0,0,0,0.00
2012-3-14,69.8,54.0,39.2,51.7,46.2,36.6,94,77,51,30.08,29.99,8,2,12,0.00
2012-3-15,69.9,56.4,44.9,54.2,49.1,42.2,93,78,54,30.08,29.96,0,0,0,0.00
2012-3-16,59.8,54.6,50.8,53.1,51.3,48.0,95,89,78,30.00,29.84,0,0,0,0.08
2012-3-17,54.7,50.0,42.6,53.8,47.8,39.5,98,92,69,29.84,29.57,3,1,7,1.52
2012-3-18,57.6,45.6,36.8,44.0,38.5,32.3,97,78,55,29.86,29.63,18,6,24,0.02
2012-3-19,61.8,46.7,32.5,42.5,35.2,29.2,92,68,35,29.97,29.83,12,6,14,0.00
2012-3-20,71.5,53.3,35.6,43.8,38.0,32.4,90,60,30,30.06,29.97,13,1,17,0.00
2012-3-21,77.9,57.9,40.3,48.6,42.4,37.0,91,61,29,30.05,29.86,13,1,14,0.00
2012-3-22,74.4,58.1,43.9,54.7,47.0,41.1,93,69,40,29.90,29.79,11,1,14,0.00
2012-3-23,67.6,56.3,47.3,54.3,50.2,43.1,95,81,60,29.98,29.88,10,1,13,0.00
2012-3-24,69.3,53.2,43.1,52.0,46.0,40.0,93,78,45,29.93,29.81,5,3,5,0.00
2012-3-25,53.3,49.4,44.1,52.2,47.6,42.5,97,93,89,29.88,29.72,5,5,5,1.79
2012-3-26,65.6,49.3,38.2,51.1,43.7,36.9,97,82,50,30.06,29.88,7,5,13,0.00
2012-3-27,67.1,51.6,39.1,49.5,41.7,34.5,96,72,33,30.03,29.96,10,4,18,0.00
2012-3-28,66.4,53.7,41.1,56.3,47.3,38.3,93,80,50,30.03,29.93,7,0,10,0.00
2012-3-29,70.1,58.0,50.4,58.3,51.8,46.4,96,81,50,30.00,29.88,12,2,19,0.00
2012-3-30,68.8,55.3,44.8,57.6,50.0,42.4,98,83,65,29.93,29.86,7,3,14,0.00
2012-3-31,65.0,54.1,48.2,56.3,51.0,45.4,96,89,69,29.98,29.88,8,1,14,0.23
2012-4-1,68.9,53.6,39.1,49.2,39.3,31.5,97,65,28,29.99,29.90,25,3,29,0.01
2012-4-2,78.8,61.1,45.2,41.5,38.8,35.6,73,47,25,29.99,29.81,13,1,18,0.00
2012-4-3,78.6,60.1,43.8,47.2,42.2,37.4,82,56,27,29.92,29.84,11,1,14,0.00
2012-4-4,76.1,59.1,44.6,51.7,45.8,41.2,89,65,36,29.90,29.80,6,0,9,0.00
2012-4-5,70.4,60.6,51.9,44.6,38.0,26.2,64,44,32,29.95,29.79,0,0,0,0.00
2012-4-6,77.4,59.3,39.9,38.9,32.1,25.2,68,40,18,30.03,29.92,0,0,0,0.00
2012-4-7,86.7,64.8,47.9,44.1,32.0,21.0,65,32,15,29.99,29.87,0,0,0,0.00
2012-4-8,83.4,60.5,39.2,42.9,37.0,32.3,79,47,22,29.96,29.89,0,0,0,0.00
2012-4-9,81.6,56.4,38.8,50.7,38.0,32.5,81,56,20,29.94,29.83,0,0,0,0.00
2012-4-10,74.9,53.3,39.2,50.4,42.3,35.7,90,70,28,29.90,29.77,0,0,0,0.10
2012-4-11,64.3,56.0,48.0,53.8,49.3,44.0,96,79,61,30.04,29.75,0,0,0,0.93
2012-4-12,62.1,53.1,42.1,51.9,48.2,40.0,94,84,64,30.10,29.97,0,0,0,0.42
2012-4-13,53.6,49.7,41.1,52.2,47.9,38.7,98,93,87,29.97,29.67,0,0,0,1.09
2012-4-14,66.8,51.7,35.9,47.3,41.3,34.1,96,71,42,30.01,29.73,0,0,0,0.00
2012-4-15,68.8,54.1,39.1,54.2,45.2,36.4,93,73,47,30.08,30.01,0,0,0,0.00
2012-4-16,79.8,60.3,42.8,51.6,45.7,39.9,94,64,31,30.08,29.99,0,0,0,0.00
2012-4-17,83.8,64.5,46.7,57.3,49.5,43.6,92,63,35,29.99,29.87,0,0,0,0.00
2012-4-18,80.7,65.0,48.8,56.8,52.1,45.8,93,67,37,29.92,29.82,0,0,0,0.00
2012-4-19,81.8,65.3,49.6,61.0,54.5,47.6,94,71,37,29.89,29.80,0,0,0,0.00
2012-4-20,91.0,69.1,50.4,64.9,57.0,48.3,94,69,38,29.89,29.80,0,0,0,0.00
2012-4-21,84.5,65.3,54.5,64.0,56.4,52.1,97,76,46,29.88,29.78,0,0,0,0.00
2012-4-22,75.1,61.0,55.3,61.7,55.9,52.2,97,84,61,29.89,29.84,0,0,0,0.00
2012-4-23,61.6,57.7,54.5,57.4,54.4,52.0,97,89,80,29.98,29.89,0,0,0,0.01
2012-4-24,70.6,61.3,55.6,56.1,53.0,51.1,88,75,57,30.00,29.87,0,0,0,0.00
2012-4-25,83.6,64.9,55.3,63.9,55.7,51.5,93,74,43,29.95,29.65,0,0,0,0.02
2012-4-26,66.8,60.3,54.8,62.0,56.4,51.0,96,87,75,29.98,29.75,0,0,0,0.07
2012-4-27,74.0,60.2,46.5,55.3,49.7,44.5,95,71,47,30.01,29.86,0,0,0,0.00
2012-4-28,84.7,65.1,44.9,56.4,50.4,42.1,92,64,31,29.86,29.67,0,0,0,0.00
2012-4-29,78.8,62.5,48.5,61.6,53.9,45.7,93,76,39,29.86,29.72,0,0,0,0.00
2012-4-30,73.9,61.9,57.3,61.7,57.0,54.7,93,85,64,29.90,29.85,0,0,0,0.00
2012-5-1,64.2,59.0,56.2,58.5,55.8,54.3,97,90,80,29.88,29.81,0,0,0,0.00
2012-5-2,65.5,59.4,54.5,56.3,54.0,52.5,94,83,70,29.91,29.81,0,0,0,0.00
2012-5-3,65.0,60.1,55.0,55.3,53.3,48.7,91,79,68,29.97,29.88,0,0,0,0.00
2012-5-4,72.8,60.7,46.4,56.7,51.1,43.6,93,72,54,29.98,29.94,0,0,0,0.00
2012-5-5,78.8,63.9,46.1,56.6,49.4,43.7,95,64,35,29.94,29.84,0,0,0,0.00
2012-5-6,78.5,62.5,46.1,61.1,52.6,43.0,91,72,44,29.90,29.84,0,0,0,0.00
2012-5-7,80.1,63.9,47.0,62.1,54.3,44.8,96,73,50,29.90,29.80,0,0,0,0.00
2012-5-8,91.4,69.0,48.3,57.8,52.1,46.1,94,62,27,29.84,29.70,0,0,0,0.00
2012-5-9,90.1,69.1,48.9,59.6,51.9,44.9,86,60,27,29.81,29.72,0,0,0,0.00
2012-5-10,78.1,63.6,50.1,62.3,56.0,47.4,94,78,57,29.83,29.77,0,0,0,0.00
2012-5-11,74.9,62.3,53.9,61.0,56.1,49.8,94,81,59,29.95,29.81,0,0,0,0.00
2012-5-12,76.0,58.1,51.3,61.0,53.2,47.6,96,85,59,29.98,29.93,0,0,0,0.00
2012-5-13,75.6,63.4,53.3,60.6,55.3,49.2,95,77,56,30.00,29.91,0,0,0,0.00
2012-5-14,81.4,63.0,47.6,58.4,51.4,45.4,94,70,38,29.97,29.86,0,0,0,0.00
2012-5-15,81.1,61.3,47.4,54.8,50.8,44.5,92,72,36,29.89,29.77,0,0,0,0.00
2012-5-16,85.9,71.5,51.7,61.2,55.9,48.6,90,61,40,29.82,29.70,0,0,0,0.00
2012-5-17,80.3,67.8,52.9,62.2,56.3,50.9,94,69,49,29.77,29.71,0,0,0,0.00
2012-5-18,76.8,64.0,48.9,57.3,52.4,46.4,91,69,49,29.82,29.75,0,0,0,0.00
2012-5-19,54.2,50.7,48.2,50.9,47.2,45.2,93,88,83,29.85,29.81,0,0,0,0.00
2012-5-21,86.1,74.2,60.1,60.3,57.5,54.5,82,58,37,29.84,29.80,0,0,0,0.00
2012-5-22,85.3,69.3,52.9,61.6,56.8,50.6,94,68,38,29.83,29.71,0,0,0,0.00
2012-5-23,86.1,69.1,53.3,59.7,55.5,51.3,95,66,37,29.74,29.56,0,0,0,0.00
2012-5-24,76.7,63.5,50.7,59.3,54.0,47.9,93,73,52,29.67,29.56,0,0,0,0.00
2012-5-25,72.0,62.6,53.5,57.2,50.4,41.9,92,67,35,29.74,29.61,0,0,0,0.00
2012-5-26,70.9,57.9,43.9,51.6,46.3,39.8,89,67,43,29.97,29.74,0,0,0,0.00
2012-5-27,77.2,61.7,45.4,54.2,49.2,43.2,94,67,39,29.96,29.87,0,0,0,0.00
2012-5-28,85.9,69.4,50.5,53.7,48.9,45.7,86,54,27,29.87,29.80,0,0,0,0.00
2012-5-29,82.0,66.4,47.9,55.9,49.7,43.3,89,59,34,29.92,29.82,0,0,0,0.00
2012-5-30,80.1,65.1,49.1,59.1,53.0,45.2,91,67,43,29.94,29.87,0,0,0,0.00
2012-5-31,85.1,67.5,50.4,63.8,55.9,47.6,93,69,45,29.90,29.71,0,0,0,0.00
2012-6-1,83.2,66.5,51.9,64.7,57.0,49.1,93,74,53,29.78,29.70,0,0,0,0.00
2012-6-2,78.5,64.5,54.5,63.4,57.3,51.3,96,79,58,29.82,29.74,0,0,0,0.00
2012-6-3,80.1,65.3,55.6,64.2,58.4,52.4,94,80,57,29.86,29.76,0,0,0,0.00
2012-6-4,66.1,62.4,59.2,59.5,57.7,55.7,91,85,77,29.91,29.82,0,0,0,0.00
2012-6-5,77.4,65.3,54.7,56.0,49.9,42.0,94,62,34,29.89,29.80,0,0,0,0.00
2012-6-6,89.0,70.0,49.4,53.7,46.1,36.4,74,46,24,29.81,29.66,3,0,8,0.00
2012-6-7,87.0,69.4,48.9,56.4,50.1,44.6,88,55,26,29.78,29.72,0,0,0,0.00
2012-6-8,80.3,67.8,51.7,61.7,55.1,47.3,89,66,48,29.78,29.73,0,0,0,0.00
2012-6-9,76.5,63.7,54.4,60.3,55.8,50.1,94,77,55,29.78,29.69,0,0,0,0.00
2012-6-10,80.3,63.0,51.0,63.2,55.5,47.9,94,78,54,29.86,29.74,0,0,0,0.00
2012-6-11,81.6,67.6,57.2,63.0,58.5,52.8,91,75,52,29.91,29.82,0,0,0,0.00
2012-6-12,80.9,66.8,58.3,64.5,59.0,54.2,93,78,55,29.91,29.79,0,0,0,0.00
2012-6-13,77.7,64.8,55.7,63.2,57.8,52.2,96,79,60,29.81,29.70,0,0,0,0.00
2012-6-14,78.3,66.6,56.6,62.6,58.1,52.7,93,75,56,29.78,29.71,0,0,0,0.00
2012-6-15,77.9,64.2,56.3,62.2,57.7,52.8,94,81,58,29.79,29.71,11,2,14,0.00
2012-6-16,82.4,68.1,59.6,64.1,59.0,55.4,89,74,52,29.82,29.72,6,2,11,0.00
2012-6-17,88.2,69.2,57.5,65.1,59.4,53.8,95,73,45,29.83,29.77,10,0,11,0.00
2012-6-18,78.8,65.1,56.7,63.1,58.2,52.6,97,80,56,29.86,29.76,10,0,14,0.00
2012-6-19,77.4,64.6,56.5,62.1,57.7,52.4,93,80,58,29.84,29.73,6,0,13,0.00
2012-6-20,80.5,65.3,54.8,63.0,57.4,51.0,95,77,53,29.79,29.72,7,0,13,0.00
2012-6-21,78.1,64.8,56.9,63.1,57.8,53.2,95,79,59,29.85,29.77,11,1,16,0.00
2012-6-22,77.9,64.2,51.7,61.6,55.7,48.8,95,76,54,29.86,29.72,10,1,13,0.00
2012-6-23,79.6,64.8,51.6,61.3,54.9,48.2,94,72,48,29.79,29.70,13,2,16,0.00
2012-6-24,84.0,67.6,49.8,57.4,51.2,42.2,93,61,25,29.89,29.78,12,4,17,0.00
2012-6-25,82.0,65.7,46.2,55.2,48.5,42.5,91,59,26,29.94,29.84,13,2,16,0.00
2012-6-26,84.5,67.9,48.3,54.1,49.7,42.7,89,57,24,29.85,29.71,10,1,17,0.00
2012-6-27,89.7,70.6,50.4,57.4,50.8,45.8,87,55,27,29.84,29.72,14,1,18,0.00
2012-6-28,89.9,70.0,49.4,58.5,52.1,45.0,89,58,28,29.93,29.84,11,0,17,0.00
2012-6-29,87.6,68.9,48.9,58.5,52.6,45.2,91,61,33,29.94,29.85,8,0,14,0.00
2012-6-30,87.4,69.9,52.5,60.8,55.1,48.8,91,64,35,29.86,29.77,10,1,13,0.00
2012-7-1,82.4,67.6,52.9,63.4,57.4,49.5,93,72,50,29.83,29.72,7,1,13,0.00
2012-7-2,82.6,68.9,55.1,63.8,58.2,51.3,91,70,52,29.80,29.73,11,1,16,0.00
2012-7-3,80.7,66.3,54.7,65.0,58.2,51.2,92,76,57,29.82,29.75,10,1,18,0.00
2012-7-4,78.8,66.5,59.9,64.7,60.0,57.0,93,81,60,29.86,29.80,10,1,18,0.00
2012-7-5,80.1,67.6,58.3,63.9,59.5,54.1,89,76,56,29.91,29.82,10,0,13,0.00
2012-7-6,82.4,66.2,57.6,63.9,58.2,53.3,92,77,52,29.94,29.85,10,0,12,0.00
2012-7-7,83.2,66.2,54.2,62.8,56.1,50.6,96,73,45,29.93,29.85,10,1,14,0.00
2012-7-8,87.0,68.2,51.0,60.5,53.7,45.3,97,65,24,29.94,29.85,7,0,12,0.00
2012-7-9,92.7,72.1,50.5,59.6,53.8,47.1,92,59,24,29.88,29.76,13,0,13,0.00
2012-7-10,95.9,74.2,55.7,62.7,57.3,51.5,91,60,28,29.81,29.70,10,1,16,0.00
2012-7-11,92.5,73.4,56.5,63.2,58.2,53.3,92,63,35,29.78,29.69,10,1,16,0.00
2012-7-12,71.1,64.5,60.5,62.8,57.8,55.3,86,79,73,29.75,29.72,0,0,0,0.00
2012-7-13,95.6,77.7,65.0,66.9,62.0,57.3,82,61,34,29.82,29.73,12,1,17,0.00
2012-7-14,88.0,71.1,55.0,63.5,57.7,51.2,91,66,36,29.85,29.78,11,1,17,0.00
2012-7-15,84.5,66.4,52.6,64.0,57.0,49.2,93,74,48,29.87,29.77,12,0,16,0.00
2012-7-16,80.1,66.1,56.0,60.6,56.7,51.9,91,73,47,29.90,29.82,14,1,19,0.00
2012-7-17,78.8,66.3,52.2,61.2,56.1,48.8,91,72,49,29.91,29.85,14,1,17,0.00
2012-7-18,88.0,68.8,52.6,62.7,56.1,49.3,94,67,36,29.91,29.81,10,1,17,0.00
2012-7-19,97.3,78.3,61.5,64.5,61.1,56.0,91,61,31,29.85,29.78,9,2,17,0.00
2012-7-20,92.5,74.5,59.5,64.8,60.1,55.6,91,65,36,29.90,29.83,10,1,14,0.00
2012-7-21,92.9,73.1,55.3,64.1,58.3,52.4,93,64,32,29.88,29.77,14,1,14,0.00
2012-7-22,88.4,71.4,60.4,65.3,60.1,55.8,93,70,43,29.88,29.79,10,1,14,0.00
2012-7-23,83.8,68.8,58.3,63.9,58.8,53.8,94,73,47,29.90,29.82,9,2,13,0.00
2012-7-24,85.3,66.2,56.3,62.7,56.8,51.2,96,75,46,29.94,29.84,13,5,13,0.00
2012-7-25,82.8,64.0,49.8,61.2,54.5,46.4,94,74,46,29.96,29.84,12,3,14,0.00
2012-7-26,82.2,63.5,49.2,61.0,54.0,45.8,94,74,46,29.95,29.84,10,0,15,0.00
2012-7-27,82.2,64.2,48.2,60.4,53.3,44.5,92,70,45,29.93,29.85,12,1,13,0.00
2012-7-28,86.1,67.0,49.1,59.8,52.2,46.0,92,63,32,29.90,29.84,10,1,13,0.00
2012-7-29,86.1,68.3,50.5,61.5,54.3,46.7,90,64,38,29.90,29.80,11,0,13,0.00
2012-7-30,87.8,68.4,51.4,63.7,55.5,47.4,91,67,37,29.90,29.81,11,0,13,0.00
2012-7-31,85.9,70.2,55.0,63.9,57.7,51.8,92,68,40,29.94,29.87,13,1,14,0.00
2012-8-1,88.4,70.7,56.9,63.5,57.9,53.3,95,68,35,29.97,29.86,8,1,12,0.00
2012-8-2,86.7,70.6,55.0,63.5,56.6,51.3,93,65,33,29.91,29.79,11,1,16,0.00
2012-8-3,84.3,66.4,55.6,66.2,59.3,52.2,93,79,46,29.85,29.73,7,0,12,0.03
2012-8-4,84.1,69.2,59.5,66.1,61.2,56.3,96,78,51,29.85,29.77,9,0,14,0.00
2012-8-6,96.8,85.5,66.4,65.3,63.1,59.3,78,49,34,29.90,29.81,9,0,12,0.00
2012-8-7,97.8,78.5,59.3,65.9,61.0,56.1,92,60,30,29.84,29.76,11,0,16,0.00
2012-8-8,97.5,77.6,60.5,65.7,60.9,56.3,90,61,32,29.82,29.74,10,1,14,0.00
2012-8-9,99.2,78.8,60.7,66.1,60.8,57.0,90,59,29,29.80,29.70,8,0,14,0.00
2012-8-10,68.3,64.0,61.3,61.8,59.0,57.4,91,84,76,29.72,29.70,0,0,0,0.00
2012-8-11,92.7,77.8,71.3,63.3,61.6,57.3,74,59,34,29.72,29.65,1,0,8,0.00
2012-8-12,101.2,80.9,65.6,64.7,61.3,53.9,83,56,23,29.73,29.65,8,0,18,0.00
2012-8-13,96.8,78.7,63.7,66.4,61.6,59.3,88,60,31,29.74,29.66,11,1,13,0.00
2012-8-14,96.3,76.7,61.6,66.0,59.6,51.1,89,61,26,29.74,29.66,11,1,17,0.00
2012-8-15,93.6,77.1,59.5,64.2,58.9,50.8,93,58,24,29.77,29.70,11,1,16,0.00
2012-8-16,98.2,76.2,57.5,62.2,56.1,48.4,86,56,20,29.79,29.74,10,0,16,0.00
2012-8-17,99.0,77.2,60.5,66.1,59.2,54.9,85,58,27,29.82,29.72,12,1,14,0.00
2012-8-18,96.8,79.5,65.5,65.6,60.4,55.5,84,55,33,29.83,29.72,11,1,17,0.00
2012-8-19,94.9,76.7,61.5,63.8,59.4,56.0,85,59,30,29.80,29.70,11,1,17,0.00
2012-8-20,94.0,76.3,61.5,69.9,61.8,57.5,89,64,39,29.81,29.72,14,1,18,0.00
2012-8-21,90.7,73.9,62.9,69.1,63.3,58.7,90,71,48,29.82,29.75,12,1,16,0.00
2012-8-22,86.7,71.4,59.9,69.5,62.9,56.8,93,76,56,29.83,29.77,10,1,18,0.00
2012-8-23,84.9,68.6,60.5,67.7,61.7,56.9,95,80,55,29.87,29.77,10,1,14,0.00
2012-8-24,84.5,69.3,60.9,66.3,61.9,56.5,95,79,53,29.86,29.75,7,1,12,0.00
2012-8-25,84.3,68.0,60.1,65.5,60.8,56.2,95,80,50,29.83,29.73,7,1,12,0.00
2012-8-26,85.3,69.2,58.4,62.0,58.1,52.5,92,71,40,29.88,29.80,13,0,14,0.00
2012-8-27,94.0,71.6,51.1,57.4,50.8,44.1,90,55,21,29.89,29.80,11,1,17,0.00
2012-8-28,99.2,77.9,58.6,64.9,55.0,47.7,72,50,21,29.84,29.73,12,0,19,0.00
2012-8-29,99.0,80.1,67.4,66.6,61.3,56.6,79,55,31,29.73,29.66,14,1,17,0.00
2012-8-30,94.9,76.8,61.0,66.3,61.2,57.1,89,62,36,29.74,29.67,10,1,16,0.00
2012-8-31,91.6,73.8,59.5,64.6,58.8,51.9,93,64,34,29.83,29.73,12,1,16,0.00
2012-9-1,91.8,73.7,54.1,58.2,52.1,47.8,86,52,23,29.85,29.79,7,0,14,0.00
2012-9-2,92.9,70.7,50.8,58.8,50.8,45.8,85,56,23,29.85,29.78,10,1,16,0.00
2012-9-3,91.4,69.8,50.1,59.7,53.4,46.1,87,61,29,29.88,29.82,6,0,17,0.00
2012-9-4,95.9,74.1,54.5,58.8,53.4,43.4,90,57,20,29.91,29.80,11,0,13,0.00
2012-9-5,78.3,69.6,62.4,66.3,58.2,49.8,79,68,41,29.90,29.82,6,0,8,0.00
2012-9-6,89.0,73.6,60.7,66.2,60.6,56.8,89,66,43,29.89,29.82,12,1,21,0.00
2012-9-7,88.4,74.3,63.2,67.6,62.1,57.8,87,68,44,29.93,29.84,12,1,17,0.00
2012-9-8,92.3,74.6,61.3,67.5,62.2,58.0,91,68,40,29.86,29.74,10,1,13,0.00
2012-9-9,96.3,76.7,61.5,67.0,62.4,57.9,92,65,39,29.81,29.69,8,0,15,0.00
2012-9-10,93.6,76.4,63.7,70.6,64.3,59.4,89,68,46,29.82,29.74,13,1,18,0.00
2012-9-11,86.3,72.3,63.9,70.0,64.3,59.6,90,77,57,29.90,29.76,13,1,20,0.00
2012-9-12,87.4,72.5,64.5,69.8,65.3,60.1,93,79,55,29.95,29.85,8,1,12,0.00
2012-9-13,91.8,73.6,58.9,69.2,62.7,56.6,94,72,43,29.95,29.84,9,1,13,0.00
2012-9-14,106.5,80.3,59.0,60.4,55.4,49.9,89,51,16,29.91,29.82,13,1,17,0.00
2012-9-15,104.4,79.8,62.1,60.9,55.0,50.6,73,48,19,29.91,29.82,10,1,18,0.00
2012-9-16,92.1,74.3,59.3,68.4,58.1,50.7,86,60,32,29.91,29.85,11,1,17,0.00
2012-9-17,84.9,68.7,58.4,66.1,60.3,54.4,97,77,48,29.95,29.85,11,0,13,0.00
2012-9-18,90.5,69.1,51.3,60.8,53.3,40.5,94,63,19,29.93,29.84,9,0,13,0.00
2012-9-19,91.8,69.6,52.6,61.5,54.4,49.0,90,63,26,29.89,29.81,8,0,14,0.00
2012-9-20,95.9,73.3,56.3,62.1,56.4,51.2,89,61,26,29.87,29.77,12,0,13,0.00
2012-9-21,94.9,73.4,55.4,64.8,57.8,51.6,88,62,32,29.85,29.74,8,0,14,0.00
2012-9-22,92.7,77.9,62.4,66.4,61.6,57.0,84,60,35,29.84,29.77,8,0,11,0.00
2012-9-23,97.5,76.2,59.6,62.3,57.1,52.5,85,58,25,29.87,29.80,14,1,18,0.00
2012-9-24,87.4,69.1,56.3,57.8,53.4,47.1,86,62,26,29.89,29.79,12,1,19,0.00
2012-9-25,80.3,64.2,48.5,62.3,54.9,46.0,96,74,49,29.85,29.76,8,0,14,0.00
2012-9-26,81.8,64.6,50.4,62.9,55.9,47.6,96,76,45,29.82,29.72,6,0,11,0.00
2012-9-27,86.1,67.5,53.6,66.6,58.6,51.0,94,75,47,29.85,29.74,8,0,12,0.00
2012-9-28,90.7,68.9,55.9,62.0,56.8,51.1,96,70,34,29.87,29.76,7,0,12,0.00
2012-9-29,92.9,71.2,54.1,63.0,54.6,49.7,87,61,24,29.89,29.81,7,0,13,0.00
2012-9-30,98.0,75.7,57.0,61.9,55.5,51.2,86,56,25,29.89,29.81,10,1,16,0.00
2012-10-1,104.4,77.6,58.4,62.4,54.7,48.6,73,50,20,29.86,29.73,11,0,16,0.00
2012-10-2,100.7,76.4,58.7,62.7,53.8,47.3,82,50,20,29.79,29.70,12,1,18,0.00
2012-10-3,89.3,68.4,53.6,65.7,56.9,48.9,89,70,34,29.94,29.77,10,0,14,0.00
2012-10-4,80.7,65.7,56.6,61.6,57.6,52.2,92,77,50,30.03,29.94,7,0,13,0.00
2012-10-5,82.0,65.5,51.3,63.4,56.7,49.1,95,75,52,29.98,29.84,10,0,12,0.00
2012-10-6,84.7,65.9,52.0,63.2,56.4,49.7,93,74,46,29.89,29.77,8,0,11,0.00
2012-10-7,83.4,65.7,53.5,63.4,56.7,50.6,94,74,50,29.86,29.78,13,1,17,0.00
2012-10-8,77.9,64.3,51.9,62.5,55.5,48.8,93,75,53,29.89,29.83,14,1,18,0.00
2012-10-9,77.0,63.0,51.3,61.8,55.6,48.3,93,78,57,29.90,29.84,13,1,18,0.00
2012-10-10,73.3,63.0,53.3,59.7,54.6,49.8,93,75,54,29.91,29.81,140,33,140,0.00
2012-10-11,70.9,59.4,51.9,55.7,51.3,47.9,92,76,51,29.89,29.80,10,0,12,0.00
2012-10-12,71.6,60.0,51.0,55.7,52.3,47.5,93,77,54,30.08,29.89,7,0,11,0.00
2012-10-13,80.5,62.2,47.4,58.5,52.0,45.2,94,72,44,30.12,29.96,11,0,11,0.00
2012-10-14,96.8,72.2,50.7,55.8,51.5,47.3,90,56,21,29.99,29.84,21,1,21,0.00
2012-10-15,96.6,72.8,58.7,57.3,50.5,45.3,71,49,22,29.88,29.74,12,0,17,0.00
2012-10-16,94.0,71.3,52.6,53.8,48.8,43.8,73,50,22,29.79,29.64,10,0,17,0.00
2012-10-17,102.3,76.3,59.5,58.8,53.3,48.7,73,50,19,29.74,29.63,14,1,18,0.00
2012-10-18,85.5,72.4,62.1,66.4,58.1,45.8,86,62,39,29.96,29.74,12,0,13,0.00
2012-10-19,81.8,67.5,57.0,66.4,61.2,54.4,95,82,58,29.94,29.79,10,0,11,0.00
2012-10-20,70.4,65.0,62.0,63.2,61.3,58.5,93,88,73,29.83,29.74,0,0,0,0.00
2012-10-21,71.8,64.8,60.5,63.5,60.2,55.8,96,86,66,29.83,29.76,11,0,14,0.14
2012-10-22,72.5,62.8,58.0,60.2,57.1,53.6,94,82,60,29.90,29.81,12,0,14,0.00
2012-10-23,72.5,60.0,48.6,55.4,50.6,46.4,94,73,44,29.92,29.82,8,0,13,0.01
2012-10-24,74.7,58.8,43.9,51.0,44.8,39.8,93,63,31,30.01,29.88,9,0,11,0.00
2012-10-25,82.6,63.9,46.7,55.9,44.5,38.0,77,52,30,30.03,29.87,10,0,10,0.00
2012-10-26,83.6,74.3,65.2,41.8,36.9,30.9,36,26,21,30.01,29.86,21,4,26,0.00
2012-10-27,93.8,75.5,58.6,46.5,37.7,28.3,49,27,17,29.87,29.72,19,3,21,0.00
2012-10-28,93.8,67.7,49.6,52.3,41.5,35.9,66,42,18,29.93,29.80,11,1,17,0.00
2012-10-29,86.1,62.8,45.2,48.7,42.0,37.3,74,51,23,30.01,29.90,10,0,14,0.00
2012-10-30,82.2,60.2,43.9,49.6,43.1,38.8,86,58,27,29.99,29.89,6,0,12,0.00
2012-10-31,76.3,56.7,40.8,56.7,45.7,36.7,86,69,34,29.99,29.88,2,0,7,0.00
2012-11-1,72.1,55.4,44.9,55.8,48.7,42.4,94,80,52,29.96,29.86,6,0,9,0.00
2012-11-2,73.0,57.0,45.2,58.3,50.2,43.0,94,79,59,29.93,29.83,8,0,12,0.00
2012-11-3,80.9,59.8,44.3,58.2,49.5,42.1,94,72,35,29.97,29.89,3,0,7,0.01
2012-11-4,93.2,67.7,47.4,47.7,43.0,34.8,88,49,18,30.02,29.92,13,2,17,0.00
2012-11-5,94.9,72.8,55.6,48.2,42.8,34.8,60,37,19,30.01,29.88,14,2,21,0.00
2012-11-6,87.4,66.4,52.6,55.7,47.2,40.6,80,53,24,29.99,29.90,10,0,11,0.00
2012-11-7,74.4,58.9,45.1,59.1,51.2,41.8,91,77,53,29.99,29.87,5,0,8,0.00
2012-11-8,63.2,58.1,56.0,57.6,55.5,54.3,94,91,80,29.92,29.79,0,0,3,0.04
2012-11-9,64.2,52.4,39.8,54.3,44.6,35.4,96,77,45,29.87,29.74,13,1,18,0.00
2012-11-10,65.2,48.1,34.1,39.6,33.4,27.7,93,62,26,30.09,29.87,17,1,24,0.00
2012-11-11,68.3,52.8,36.8,32.2,29.3,22.8,72,44,24,30.23,30.09,13,2,20,0.00
2012-11-12,74.6,57.3,41.3,31.0,26.4,21.3,58,33,18,30.20,30.03,14,1,22,0.00
2012-11-13,83.0,60.9,44.6,35.3,28.9,21.0,54,33,15,30.06,29.90,13,2,21,0.00
2012-11-14,83.2,59.3,43.6,50.5,35.9,25.5,64,46,17,29.99,29.88,10,1,18,0.00
2012-11-15,69.3,58.4,49.1,54.6,43.1,29.9,85,58,35,30.03,29.91,2,0,3,0.01
2012-11-16,68.3,57.9,48.9,55.0,50.8,45.2,90,78,52,30.04,29.93,6,0,12,0.02
2012-11-17,62.1,59.0,56.6,61.2,57.5,54.3,97,95,87,30.02,29.94,2,0,5,0.35
2012-11-18,64.0,58.3,50.5,59.6,55.1,47.1,98,89,75,30.11,29.99,6,0,7,0.06
2012-11-19,70.4,57.6,48.8,57.0,51.4,45.8,94,81,57,30.17,30.08,5,0,10,0.01
2012-11-20,73.5,56.1,44.2,54.9,48.0,42.3,97,76,48,30.10,29.95,5,0,8,0.00
2012-11-21,73.9,57.2,43.3,56.4,48.7,40.8,96,75,46,30.03,29.92,5,0,11,0.00
2012-11-22,72.7,57.4,45.2,58.2,49.8,43.2,95,78,47,30.02,29.95,8,0,12,0.01
2012-11-23,86.3,65.2,49.5,54.7,44.7,39.9,80,53,21,30.07,29.96,13,1,16,0.00
2012-11-24,88.6,62.7,48.5,54.9,43.7,39.1,79,55,19,30.01,29.85,10,0,13,0.00
2012-11-25,75.4,56.2,42.3,59.2,47.0,37.2,92,74,32,29.89,29.77,6,0,11,0.00
2012-11-26,68.3,55.2,46.8,56.1,49.7,44.5,95,83,56,30.04,29.89,7,0,12,0.00
2012-11-27,76.5,54.8,43.8,54.8,47.1,41.9,95,78,36,30.10,29.96,12,0,14,0.00
2012-11-28,66.9,55.6,45.2,56.7,51.6,42.5,96,87,59,30.12,30.01,7,0,12,0.34
2012-11-29,65.5,60.3,57.2,62.1,58.6,55.6,98,94,88,30.13,30.04,0,0,6,0.40
2012-11-30,69.4,61.9,56.6,64.9,59.4,54.6,98,92,79,30.06,29.96,12,0,13,0.33
2012-12-1,65.2,60.5,57.2,61.5,58.8,55.3,97,94,86,30.09,29.99,0,0,0,0.16
2012-12-2,66.3,60.7,58.6,63.1,59.0,57.2,98,94,82,30.05,29.96,7,0,14,0.24
2012-12-3,69.8,61.8,54.2,63.9,58.4,51.6,97,89,72,30.11,29.99,6,0,12,0.15
2012-12-4,67.1,56.1,47.7,59.4,51.8,46.3,97,86,64,30.18,30.07,0,0,0,0.01
2012-12-5,73.3,56.7,43.8,58.2,49.8,42.2,97,80,48,30.08,29.92,0,0,0,0.01
2012-12-6,71.6,57.1,46.8,60.3,51.9,45.2,97,84,61,29.93,29.79,5,0,7,0.01
2012-12-7,79.9,57.8,44.9,56.8,47.8,41.0,90,73,34,29.89,29.81,13,0,16,0.00
2012-12-8,68.1,51.7,37.6,56.0,44.3,33.7,89,77,44,29.90,29.82,0,0,1,0.00
2012-12-9,69.1,51.9,37.6,56.2,44.3,35.7,94,78,40,30.03,29.88,0,0,0,0.01
2012-12-10,78.5,60.1,46.0,44.7,39.3,35.2,74,49,26,30.07,29.96,9,0,12,0.00
2012-12-11,74.0,53.9,39.6,52.3,42.4,35.5,91,68,32,29.98,29.84,0,0,7,0.00
2012-12-12,60.7,53.2,46.8,53.2,49.6,44.8,96,88,71,29.89,29.74,1,0,3,0.21
2012-12-13,61.6,51.5,39.5,52.4,46.2,34.9,98,83,59,29.74,29.63,9,1,11,0.01
2012-12-14,56.5,45.2,33.5,42.5,38.2,30.6,93,78,55,29.93,29.69,3,1,6,0.06
2012-12-15,58.7,46.7,35.8,43.3,39.5,33.7,93,78,41,30.01,29.91,1,0,7,0.00
2012-12-16,54.2,49.2,42.3,52.5,47.1,38.1,96,92,84,30.11,30.00,6,0,7,0.04
2012-12-17,59.0,54.2,51.4,52.8,51.3,50.1,97,90,74,30.09,29.91,0,0,0,0.10
2012-12-18,61.8,53.4,45.2,55.7,43.6,22.3,97,73,37,29.97,29.72,15,3,24,0.26
2012-12-19,59.9,43.9,32.4,32.6,25.5,18.5,83,52,26,30.20,29.97,11,4,18,0.00
2012-12-20,54.8,47.6,43.2,23.6,19.4,16.8,39,32,29,30.18,30.13,16,3,21,0.00
2012-12-21,37.8,36.5,35.6,31.3,30.6,30.0,82,79,77,30.03,30.01,0,0,0,0.00
2012-12-22,58.9,45.2,30.7,48.8,39.0,27.6,93,80,43,30.11,29.99,6,0,8,0.18
2012-12-23,59.2,54.4,50.1,53.1,50.4,48.5,95,87,76,30.15,30.03,7,0,12,0.16
2012-12-24,64.5,54.2,44.8,57.6,50.9,41.2,98,89,72,30.03,29.90,4,0,6,0.44
2012-12-25,61.3,48.5,39.9,45.2,38.6,32.8,91,71,35,30.03,29.90,6,0,10,0.00
2012-12-26,63.5,49.4,40.2,51.2,43.3,36.7,97,81,50,29.92,29.83,12,0,13,0.17
2012-12-27,61.2,46.9,36.0,45.1,36.5,30.9,95,70,44,30.04,29.89,12,2,14,0.00
2012-12-28,62.6,47.5,34.1,42.2,34.2,28.8,84,63,32,30.09,29.99,7,2,8,0.00
2012-12-29,51.3,40.6,34.4,47.3,36.9,30.4,95,87,77,30.01,29.91,2,0,6,0.16
2012-12-30,55.7,41.5,31.2,42.4,34.7,29.2,94,78,54,30.02,29.85,0,0,0,0.00
2012-12-31,60.5,46.3,32.5,39.3,34.4,29.6,90,66,36,30.15,30.01,12,1,16,0.00